sensor_id;sensor_type;location;lat;lon;timestamp;P1;durP1;ratioP1;P2;durP2;ratioP2
17422;SDS011;8829;47.932;7.810;2022-10-30T00:01:40;4.07;;;1.23;;
17422;SDS011;8829;47.932;7.810;2022-10-30T00:04:07;5.57;;;1.30;;
17422;SDS011;8829;47.932;7.810;2022-10-30T00:06:34;4.60;;;1.03;;
17422;SDS011;8829;47.932;7.810;2022-10-30T00:09:01;2.20;;;1.47;;
17422;SDS011;8829;47.932;7.810;2022-10-30T00:11:29;2.57;;;1.27;;
17422;SDS011;8829;47.932;7.810;2022-10-30T00:13:56;4.57;;;1.50;;
17422;SDS011;8829;47.932;7.810;2022-10-30T00:16:23;5.40;;;1.03;;
17422;SDS011;8829;47.932;7.810;2022-10-30T00:18:50;2.67;;;1.13;;
17422;SDS011;8829;47.932;7.810;2022-10-30T00:21:17;3.03;;;1.57;;
17422;SDS011;8829;47.932;7.810;2022-10-30T00:23:46;2.03;;;1.20;;
17422;SDS011;8829;47.932;7.810;2022-10-30T00:26:14;2.90;;;1.20;;
17422;SDS011;8829;47.932;7.810;2022-10-30T00:28:47;3.43;;;0.90;;
17422;SDS011;8829;47.932;7.810;2022-10-30T00:31:14;4.93;;;1.07;;
17422;SDS011;8829;47.932;7.810;2022-10-30T00:33:41;5.60;;;1.33;;
17422;SDS011;8829;47.932;7.810;2022-10-30T00:36:08;7.80;;;1.77;;
17422;SDS011;8829;47.932;7.810;2022-10-30T00:38:35;1.57;;;1.00;;
17422;SDS011;8829;47.932;7.810;2022-10-30T00:41:02;3.30;;;1.43;;
17422;SDS011;8829;47.932;7.810;2022-10-30T00:43:30;3.80;;;1.30;;
17422;SDS011;8829;47.932;7.810;2022-10-30T00:46:01;7.57;;;1.60;;
17422;SDS011;8829;47.932;7.810;2022-10-30T00:48:31;5.13;;;1.40;;
17422;SDS011;8829;47.932;7.810;2022-10-30T00:50:59;4.23;;;1.07;;
17422;SDS011;8829;47.932;7.810;2022-10-30T00:53:28;6.07;;;1.17;;
17422;SDS011;8829;47.932;7.810;2022-10-30T00:55:56;3.83;;;1.37;;
17422;SDS011;8829;47.932;7.810;2022-10-30T00:58:27;3.50;;;1.00;;
17422;SDS011;8829;47.932;7.810;2022-10-30T01:00:58;3.67;;;1.37;;
17422;SDS011;8829;47.932;7.810;2022-10-30T01:03:28;1.73;;;1.23;;
17422;SDS011;8829;47.932;7.810;2022-10-30T01:05:57;1.97;;;1.20;;
17422;SDS011;8829;47.932;7.810;2022-10-30T01:08:25;5.87;;;1.13;;
17422;SDS011;8829;47.932;7.810;2022-10-30T01:10:53;3.67;;;1.00;;
17422;SDS011;8829;47.932;7.810;2022-10-30T01:13:22;1.33;;;1.03;;
17422;SDS011;8829;47.932;7.810;2022-10-30T01:15:52;4.17;;;1.47;;
17422;SDS011;8829;47.932;7.810;2022-10-30T01:18:34;4.50;;;1.73;;
17422;SDS011;8829;47.932;7.810;2022-10-30T01:21:13;3.90;;;1.30;;
17422;SDS011;8829;47.932;7.810;2022-10-30T01:23:54;6.23;;;1.40;;
17422;SDS011;8829;47.932;7.810;2022-10-30T01:26:33;6.07;;;1.60;;
17422;SDS011;8829;47.932;7.810;2022-10-30T01:29:10;1.90;;;1.10;;
17422;SDS011;8829;47.932;7.810;2022-10-30T01:31:48;3.97;;;1.70;;
17422;SDS011;8829;47.932;7.810;2022-10-30T01:34:27;3.60;;;1.47;;
17422;SDS011;8829;47.932;7.810;2022-10-30T01:37:01;5.53;;;1.00;;
17422;SDS011;8829;47.932;7.810;2022-10-30T01:39:32;2.67;;;1.00;;
17422;SDS011;8829;47.932;7.810;2022-10-30T01:42:07;4.60;;;1.33;;
17422;SDS011;8829;47.932;7.810;2022-10-30T01:44:34;7.17;;;1.53;;
17422;SDS011;8829;47.932;7.810;2022-10-30T01:47:06;6.80;;;1.43;;
17422;SDS011;8829;47.932;7.810;2022-10-30T01:49:50;4.70;;;1.43;;
17422;SDS011;8829;47.932;7.810;2022-10-30T01:52:41;6.53;;;1.30;;
17422;SDS011;8829;47.932;7.810;2022-10-30T01:55:17;6.80;;;1.70;;
17422;SDS011;8829;47.932;7.810;2022-10-30T01:57:56;3.97;;;1.33;;
17422;SDS011;8829;47.932;7.810;2022-10-30T02:00:27;8.07;;;1.67;;
17422;SDS011;8829;47.932;7.810;2022-10-30T02:02:54;8.77;;;1.60;;
17422;SDS011;8829;47.932;7.810;2022-10-30T02:05:26;3.93;;;1.20;;
17422;SDS011;8829;47.932;7.810;2022-10-30T02:08:00;4.23;;;1.90;;
17422;SDS011;8829;47.932;7.810;2022-10-30T02:10:27;3.70;;;1.47;;
17422;SDS011;8829;47.932;7.810;2022-10-30T02:12:55;5.10;;;1.40;;
17422;SDS011;8829;47.932;7.810;2022-10-30T02:15:22;2.03;;;1.47;;
17422;SDS011;8829;47.932;7.810;2022-10-30T02:17:49;4.60;;;1.47;;
17422;SDS011;8829;47.932;7.810;2022-10-30T02:20:17;8.03;;;1.40;;
17422;SDS011;8829;47.932;7.810;2022-10-30T02:22:45;7.63;;;1.33;;
17422;SDS011;8829;47.932;7.810;2022-10-30T02:25:12;3.70;;;1.63;;
17422;SDS011;8829;47.932;7.810;2022-10-30T02:27:40;14.20;;;1.57;;
17422;SDS011;8829;47.932;7.810;2022-10-30T02:30:07;3.17;;;1.33;;
17422;SDS011;8829;47.932;7.810;2022-10-30T02:32:34;3.30;;;1.40;;
17422;SDS011;8829;47.932;7.810;2022-10-30T02:35:01;8.53;;;1.40;;
17422;SDS011;8829;47.932;7.810;2022-10-30T02:37:30;2.73;;;1.57;;
17422;SDS011;8829;47.932;7.810;2022-10-30T02:39:59;7.07;;;1.47;;
17422;SDS011;8829;47.932;7.810;2022-10-30T02:42:26;4.10;;;1.20;;
17422;SDS011;8829;47.932;7.810;2022-10-30T02:44:53;3.87;;;1.23;;
17422;SDS011;8829;47.932;7.810;2022-10-30T02:47:20;4.83;;;1.30;;
17422;SDS011;8829;47.932;7.810;2022-10-30T02:49:46;5.27;;;1.00;;
17422;SDS011;8829;47.932;7.810;2022-10-30T02:52:13;6.13;;;1.27;;
17422;SDS011;8829;47.932;7.810;2022-10-30T02:54:41;5.23;;;1.30;;
17422;SDS011;8829;47.932;7.810;2022-10-30T02:57:08;4.97;;;1.47;;
17422;SDS011;8829;47.932;7.810;2022-10-30T02:59:35;5.60;;;1.63;;
17422;SDS011;8829;47.932;7.810;2022-10-30T03:02:01;2.20;;;1.03;;
17422;SDS011;8829;47.932;7.810;2022-10-30T03:04:28;7.40;;;1.43;;
17422;SDS011;8829;47.932;7.810;2022-10-30T03:06:55;6.20;;;0.93;;
17422;SDS011;8829;47.932;7.810;2022-10-30T03:09:22;7.27;;;1.20;;
17422;SDS011;8829;47.932;7.810;2022-10-30T03:11:50;3.03;;;1.37;;
17422;SDS011;8829;47.932;7.810;2022-10-30T03:14:17;2.30;;;1.40;;
17422;SDS011;8829;47.932;7.810;2022-10-30T03:16:43;5.03;;;1.20;;
17422;SDS011;8829;47.932;7.810;2022-10-30T03:19:10;7.83;;;1.60;;
17422;SDS011;8829;47.932;7.810;2022-10-30T03:21:37;2.90;;;1.57;;
17422;SDS011;8829;47.932;7.810;2022-10-30T03:24:04;1.60;;;1.00;;
17422;SDS011;8829;47.932;7.810;2022-10-30T03:26:31;5.50;;;1.07;;
17422;SDS011;8829;47.932;7.810;2022-10-30T03:28:59;7.27;;;1.80;;
17422;SDS011;8829;47.932;7.810;2022-10-30T03:31:26;5.23;;;1.07;;
17422;SDS011;8829;47.932;7.810;2022-10-30T03:33:55;3.90;;;1.50;;
17422;SDS011;8829;47.932;7.810;2022-10-30T03:36:22;3.70;;;1.17;;
17422;SDS011;8829;47.932;7.810;2022-10-30T03:38:50;4.00;;;1.33;;
17422;SDS011;8829;47.932;7.810;2022-10-30T03:41:17;2.87;;;1.27;;
17422;SDS011;8829;47.932;7.810;2022-10-30T03:43:44;3.03;;;1.23;;
17422;SDS011;8829;47.932;7.810;2022-10-30T03:46:12;1.97;;;1.20;;
17422;SDS011;8829;47.932;7.810;2022-10-30T03:48:39;5.13;;;1.13;;
17422;SDS011;8829;47.932;7.810;2022-10-30T03:51:05;1.87;;;1.23;;
17422;SDS011;8829;47.932;7.810;2022-10-30T03:53:32;3.27;;;1.33;;
17422;SDS011;8829;47.932;7.810;2022-10-30T03:55:59;2.20;;;0.90;;
17422;SDS011;8829;47.932;7.810;2022-10-30T03:58:28;4.97;;;1.30;;
17422;SDS011;8829;47.932;7.810;2022-10-30T04:00:58;5.47;;;1.27;;
17422;SDS011;8829;47.932;7.810;2022-10-30T04:03:27;2.53;;;1.27;;
17422;SDS011;8829;47.932;7.810;2022-10-30T04:05:54;2.77;;;1.27;;
17422;SDS011;8829;47.932;7.810;2022-10-30T04:08:21;1.93;;;1.10;;
17422;SDS011;8829;47.932;7.810;2022-10-30T04:10:48;3.77;;;1.20;;
17422;SDS011;8829;47.932;7.810;2022-10-30T04:13:15;4.43;;;1.67;;
17422;SDS011;8829;47.932;7.810;2022-10-30T04:15:42;4.60;;;1.00;;
17422;SDS011;8829;47.932;7.810;2022-10-30T04:18:09;2.20;;;1.17;;
17422;SDS011;8829;47.932;7.810;2022-10-30T04:20:38;2.53;;;1.30;;
17422;SDS011;8829;47.932;7.810;2022-10-30T04:23:05;3.00;;;1.30;;
17422;SDS011;8829;47.932;7.810;2022-10-30T04:25:34;1.37;;;1.17;;
17422;SDS011;8829;47.932;7.810;2022-10-30T04:28:00;2.17;;;1.30;;
17422;SDS011;8829;47.932;7.810;2022-10-30T04:30:28;3.27;;;1.33;;
17422;SDS011;8829;47.932;7.810;2022-10-30T04:32:58;4.70;;;1.70;;
17422;SDS011;8829;47.932;7.810;2022-10-30T04:35:25;5.70;;;1.70;;
17422;SDS011;8829;47.932;7.810;2022-10-30T04:37:55;6.33;;;2.10;;
17422;SDS011;8829;47.932;7.810;2022-10-30T04:40:23;4.13;;;1.73;;
17422;SDS011;8829;47.932;7.810;2022-10-30T04:42:51;2.70;;;1.27;;
17422;SDS011;8829;47.932;7.810;2022-10-30T04:45:18;4.60;;;1.50;;
17422;SDS011;8829;47.932;7.810;2022-10-30T04:47:45;3.53;;;1.30;;
17422;SDS011;8829;47.932;7.810;2022-10-30T04:50:12;6.50;;;1.57;;
17422;SDS011;8829;47.932;7.810;2022-10-30T04:52:39;2.83;;;1.40;;
17422;SDS011;8829;47.932;7.810;2022-10-30T04:55:08;7.83;;;1.73;;
17422;SDS011;8829;47.932;7.810;2022-10-30T04:57:36;4.37;;;2.00;;
17422;SDS011;8829;47.932;7.810;2022-10-30T05:00:03;3.17;;;1.13;;
17422;SDS011;8829;47.932;7.810;2022-10-30T05:02:31;2.80;;;1.53;;
17422;SDS011;8829;47.932;7.810;2022-10-30T05:04:59;3.13;;;1.30;;
17422;SDS011;8829;47.932;7.810;2022-10-30T05:07:26;4.07;;;1.53;;
17422;SDS011;8829;47.932;7.810;2022-10-30T05:09:53;6.10;;;1.40;;
17422;SDS011;8829;47.932;7.810;2022-10-30T05:12:21;3.10;;;1.53;;
17422;SDS011;8829;47.932;7.810;2022-10-30T05:14:47;3.67;;;1.40;;
17422;SDS011;8829;47.932;7.810;2022-10-30T05:17:14;2.00;;;1.13;;
17422;SDS011;8829;47.932;7.810;2022-10-30T05:19:41;4.57;;;1.37;;
17422;SDS011;8829;47.932;7.810;2022-10-30T05:22:08;4.47;;;1.43;;
17422;SDS011;8829;47.932;7.810;2022-10-30T05:24:34;3.23;;;1.30;;
17422;SDS011;8829;47.932;7.810;2022-10-30T05:27:01;3.17;;;1.40;;
17422;SDS011;8829;47.932;7.810;2022-10-30T05:29:29;2.77;;;1.30;;
17422;SDS011;8829;47.932;7.810;2022-10-30T05:31:56;3.43;;;1.73;;
17422;SDS011;8829;47.932;7.810;2022-10-30T05:34:22;2.33;;;1.10;;
17422;SDS011;8829;47.932;7.810;2022-10-30T05:36:49;1.30;;;1.10;;
17422;SDS011;8829;47.932;7.810;2022-10-30T05:39:16;4.20;;;1.40;;
17422;SDS011;8829;47.932;7.810;2022-10-30T05:41:42;5.27;;;1.33;;
17422;SDS011;8829;47.932;7.810;2022-10-30T05:44:09;5.57;;;1.47;;
17422;SDS011;8829;47.932;7.810;2022-10-30T05:46:37;4.53;;;1.57;;
17422;SDS011;8829;47.932;7.810;2022-10-30T05:49:04;7.03;;;1.63;;
17422;SDS011;8829;47.932;7.810;2022-10-30T05:51:31;7.60;;;1.60;;
17422;SDS011;8829;47.932;7.810;2022-10-30T05:53:58;4.60;;;1.43;;
17422;SDS011;8829;47.932;7.810;2022-10-30T05:56:25;4.10;;;1.43;;
17422;SDS011;8829;47.932;7.810;2022-10-30T05:58:52;2.70;;;1.37;;
17422;SDS011;8829;47.932;7.810;2022-10-30T06:01:19;2.50;;;1.10;;
17422;SDS011;8829;47.932;7.810;2022-10-30T06:03:47;3.03;;;1.50;;
17422;SDS011;8829;47.932;7.810;2022-10-30T06:06:13;3.33;;;1.37;;
17422;SDS011;8829;47.932;7.810;2022-10-30T06:08:40;5.93;;;1.47;;
17422;SDS011;8829;47.932;7.810;2022-10-30T06:11:07;5.10;;;1.00;;
17422;SDS011;8829;47.932;7.810;2022-10-30T06:13:34;2.93;;;1.40;;
17422;SDS011;8829;47.932;7.810;2022-10-30T06:16:00;6.33;;;1.60;;
17422;SDS011;8829;47.932;7.810;2022-10-30T06:18:27;1.57;;;1.30;;
17422;SDS011;8829;47.932;7.810;2022-10-30T06:20:55;5.33;;;1.60;;
17422;SDS011;8829;47.932;7.810;2022-10-30T06:23:22;2.83;;;1.20;;
17422;SDS011;8829;47.932;7.810;2022-10-30T06:25:49;2.10;;;1.40;;
17422;SDS011;8829;47.932;7.810;2022-10-30T06:28:15;4.43;;;1.63;;
17422;SDS011;8829;47.932;7.810;2022-10-30T06:30:42;3.30;;;1.37;;
17422;SDS011;8829;47.932;7.810;2022-10-30T06:33:09;2.33;;;1.27;;
17422;SDS011;8829;47.932;7.810;2022-10-30T06:35:35;3.13;;;1.37;;
17422;SDS011;8829;47.932;7.810;2022-10-30T06:38:03;4.83;;;1.40;;
17422;SDS011;8829;47.932;7.810;2022-10-30T06:40:32;2.63;;;1.67;;
17422;SDS011;8829;47.932;7.810;2022-10-30T06:42:59;3.80;;;1.43;;
17422;SDS011;8829;47.932;7.810;2022-10-30T06:45:26;4.57;;;1.47;;
17422;SDS011;8829;47.932;7.810;2022-10-30T06:47:52;4.30;;;1.63;;
17422;SDS011;8829;47.932;7.810;2022-10-30T06:50:20;4.03;;;1.57;;
17422;SDS011;8829;47.932;7.810;2022-10-30T06:52:48;5.03;;;1.50;;
17422;SDS011;8829;47.932;7.810;2022-10-30T06:55:17;2.33;;;1.30;;
17422;SDS011;8829;47.932;7.810;2022-10-30T06:57:44;5.40;;;1.70;;
17422;SDS011;8829;47.932;7.810;2022-10-30T07:00:11;2.57;;;1.70;;
17422;SDS011;8829;47.932;7.810;2022-10-30T07:02:38;4.27;;;1.70;;
17422;SDS011;8829;47.932;7.810;2022-10-30T07:05:05;3.93;;;1.40;;
17422;SDS011;8829;47.932;7.810;2022-10-30T07:07:32;4.50;;;1.33;;
17422;SDS011;8829;47.932;7.810;2022-10-30T07:09:59;1.67;;;1.30;;
17422;SDS011;8829;47.932;7.810;2022-10-30T07:12:28;3.03;;;1.60;;
17422;SDS011;8829;47.932;7.810;2022-10-30T07:14:54;3.77;;;1.40;;
17422;SDS011;8829;47.932;7.810;2022-10-30T07:17:21;3.27;;;1.40;;
17422;SDS011;8829;47.932;7.810;2022-10-30T07:19:48;3.63;;;1.57;;
17422;SDS011;8829;47.932;7.810;2022-10-30T07:22:15;1.93;;;1.10;;
17422;SDS011;8829;47.932;7.810;2022-10-30T07:24:41;3.57;;;1.90;;
17422;SDS011;8829;47.932;7.810;2022-10-30T07:27:08;5.00;;;2.20;;
17422;SDS011;8829;47.932;7.810;2022-10-30T07:29:36;4.23;;;2.77;;
17422;SDS011;8829;47.932;7.810;2022-10-30T07:32:03;4.70;;;3.20;;
17422;SDS011;8829;47.932;7.810;2022-10-30T07:34:30;5.53;;;2.20;;
17422;SDS011;8829;47.932;7.810;2022-10-30T07:36:58;6.10;;;2.13;;
17422;SDS011;8829;47.932;7.810;2022-10-30T07:39:25;5.50;;;2.40;;
17422;SDS011;8829;47.932;7.810;2022-10-30T07:41:51;9.43;;;1.60;;
17422;SDS011;8829;47.932;7.810;2022-10-30T07:44:18;1.90;;;1.13;;
17422;SDS011;8829;47.932;7.810;2022-10-30T07:46:46;4.53;;;1.33;;
17422;SDS011;8829;47.932;7.810;2022-10-30T07:49:13;3.00;;;1.67;;
17422;SDS011;8829;47.932;7.810;2022-10-30T07:51:40;3.50;;;1.50;;
17422;SDS011;8829;47.932;7.810;2022-10-30T07:54:06;2.17;;;1.60;;
17422;SDS011;8829;47.932;7.810;2022-10-30T07:56:33;8.73;;;1.70;;
17422;SDS011;8829;47.932;7.810;2022-10-30T07:59:00;5.03;;;1.47;;
17422;SDS011;8829;47.932;7.810;2022-10-30T08:01:26;8.40;;;1.97;;
17422;SDS011;8829;47.932;7.810;2022-10-30T08:03:54;8.50;;;1.93;;
17422;SDS011;8829;47.932;7.810;2022-10-30T08:06:21;3.13;;;1.27;;
17422;SDS011;8829;47.932;7.810;2022-10-30T08:08:48;1.80;;;1.33;;
17422;SDS011;8829;47.932;7.810;2022-10-30T08:11:14;2.80;;;1.80;;
17422;SDS011;8829;47.932;7.810;2022-10-30T08:13:41;6.30;;;1.67;;
17422;SDS011;8829;47.932;7.810;2022-10-30T08:16:08;6.47;;;1.70;;
17422;SDS011;8829;47.932;7.810;2022-10-30T08:18:35;5.00;;;2.37;;
17422;SDS011;8829;47.932;7.810;2022-10-30T08:21:04;2.47;;;1.80;;
17422;SDS011;8829;47.932;7.810;2022-10-30T08:23:31;13.70;;;2.87;;
17422;SDS011;8829;47.932;7.810;2022-10-30T08:25:57;4.20;;;2.33;;
17422;SDS011;8829;47.932;7.810;2022-10-30T08:28:25;8.10;;;2.43;;
17422;SDS011;8829;47.932;7.810;2022-10-30T08:30:52;7.83;;;2.63;;
17422;SDS011;8829;47.932;7.810;2022-10-30T08:33:18;2.07;;;1.83;;
17422;SDS011;8829;47.932;7.810;2022-10-30T08:35:46;2.93;;;1.70;;
17422;SDS011;8829;47.932;7.810;2022-10-30T08:38:15;3.97;;;1.77;;
17422;SDS011;8829;47.932;7.810;2022-10-30T08:40:42;3.33;;;2.50;;
17422;SDS011;8829;47.932;7.810;2022-10-30T08:43:08;7.93;;;2.27;;
17422;SDS011;8829;47.932;7.810;2022-10-30T08:45:35;3.57;;;2.27;;
17422;SDS011;8829;47.932;7.810;2022-10-30T08:48:03;2.57;;;1.57;;
17422;SDS011;8829;47.932;7.810;2022-10-30T08:50:31;6.50;;;1.93;;
17422;SDS011;8829;47.932;7.810;2022-10-30T08:52:59;3.77;;;2.23;;
17422;SDS011;8829;47.932;7.810;2022-10-30T08:55:28;9.17;;;3.00;;
17422;SDS011;8829;47.932;7.810;2022-10-30T08:57:55;7.40;;;2.50;;
17422;SDS011;8829;47.932;7.810;2022-10-30T09:00:22;7.57;;;2.93;;
17422;SDS011;8829;47.932;7.810;2022-10-30T09:02:49;10.10;;;3.73;;
17422;SDS011;8829;47.932;7.810;2022-10-30T09:05:16;6.40;;;2.90;;
17422;SDS011;8829;47.932;7.810;2022-10-30T09:07:43;7.80;;;3.10;;
17422;SDS011;8829;47.932;7.810;2022-10-30T09:10:09;7.23;;;3.00;;
17422;SDS011;8829;47.932;7.810;2022-10-30T09:12:38;5.60;;;3.07;;
17422;SDS011;8829;47.932;7.810;2022-10-30T09:15:05;6.13;;;2.90;;
17422;SDS011;8829;47.932;7.810;2022-10-30T09:17:32;5.80;;;2.37;;
17422;SDS011;8829;47.932;7.810;2022-10-30T09:19:59;4.23;;;2.17;;
17422;SDS011;8829;47.932;7.810;2022-10-30T09:22:26;8.03;;;2.57;;
17422;SDS011;8829;47.932;7.810;2022-10-30T09:24:53;6.80;;;2.70;;
17422;SDS011;8829;47.932;7.810;2022-10-30T09:27:19;8.27;;;2.13;;
17422;SDS011;8829;47.932;7.810;2022-10-30T09:29:47;10.23;;;2.40;;
17422;SDS011;8829;47.932;7.810;2022-10-30T09:32:14;6.03;;;2.57;;
17422;SDS011;8829;47.932;7.810;2022-10-30T09:34:41;4.20;;;1.90;;
17422;SDS011;8829;47.932;7.810;2022-10-30T09:37:07;7.47;;;2.23;;
17422;SDS011;8829;47.932;7.810;2022-10-30T09:39:34;2.97;;;2.00;;
17422;SDS011;8829;47.932;7.810;2022-10-30T09:42:15;9.67;;;2.10;;
17422;SDS011;8829;47.932;7.810;2022-10-30T09:45:02;2.67;;;2.00;;
17422;SDS011;8829;47.932;7.810;2022-10-30T09:47:39;7.07;;;2.27;;
17422;SDS011;8829;47.932;7.810;2022-10-30T09:50:18;9.83;;;2.03;;
17422;SDS011;8829;47.932;7.810;2022-10-30T09:52:54;6.37;;;2.10;;
17422;SDS011;8829;47.932;7.810;2022-10-30T09:55:29;4.57;;;1.93;;
17422;SDS011;8829;47.932;7.810;2022-10-30T09:58:04;4.07;;;1.93;;
17422;SDS011;8829;47.932;7.810;2022-10-30T10:00:46;7.00;;;2.17;;
17422;SDS011;8829;47.932;7.810;2022-10-30T10:03:21;5.43;;;2.07;;
17422;SDS011;8829;47.932;7.810;2022-10-30T10:05:57;5.97;;;2.23;;
17422;SDS011;8829;47.932;7.810;2022-10-30T10:08:27;4.10;;;2.43;;
17422;SDS011;8829;47.932;7.810;2022-10-30T10:11:00;3.73;;;2.23;;
17422;SDS011;8829;47.932;7.810;2022-10-30T10:13:32;7.63;;;2.23;;
17422;SDS011;8829;47.932;7.810;2022-10-30T10:16:06;7.17;;;2.20;;
17422;SDS011;8829;47.932;7.810;2022-10-30T10:18:41;3.97;;;2.10;;
17422;SDS011;8829;47.932;7.810;2022-10-30T10:21:13;4.37;;;2.30;;
17422;SDS011;8829;47.932;7.810;2022-10-30T10:23:47;6.50;;;2.33;;
17422;SDS011;8829;47.932;7.810;2022-10-30T10:26:22;5.43;;;2.37;;
17422;SDS011;8829;47.932;7.810;2022-10-30T10:28:57;6.13;;;2.37;;
17422;SDS011;8829;47.932;7.810;2022-10-30T10:31:40;6.53;;;2.60;;
17422;SDS011;8829;47.932;7.810;2022-10-30T10:34:24;6.97;;;2.93;;
17422;SDS011;8829;47.932;7.810;2022-10-30T10:37:05;4.73;;;2.63;;
17422;SDS011;8829;47.932;7.810;2022-10-30T10:39:40;9.63;;;2.47;;
17422;SDS011;8829;47.932;7.810;2022-10-30T10:42:23;4.47;;;2.50;;
17422;SDS011;8829;47.932;7.810;2022-10-30T10:45:01;4.17;;;2.57;;
17422;SDS011;8829;47.932;7.810;2022-10-30T10:47:51;8.23;;;2.83;;
17422;SDS011;8829;47.932;7.810;2022-10-30T10:50:39;6.47;;;2.67;;
17422;SDS011;8829;47.932;7.810;2022-10-30T10:53:14;6.27;;;2.50;;
17422;SDS011;8829;47.932;7.810;2022-10-30T10:55:47;11.27;;;2.40;;
17422;SDS011;8829;47.932;7.810;2022-10-30T10:58:21;6.07;;;1.90;;
17422;SDS011;8829;47.932;7.810;2022-10-30T11:00:52;6.03;;;2.00;;
17422;SDS011;8829;47.932;7.810;2022-10-30T11:03:23;5.60;;;2.10;;
17422;SDS011;8829;47.932;7.810;2022-10-30T11:05:57;4.87;;;2.20;;
17422;SDS011;8829;47.932;7.810;2022-10-30T11:08:28;6.67;;;2.47;;
17422;SDS011;8829;47.932;7.810;2022-10-30T11:10:57;5.90;;;2.67;;
17422;SDS011;8829;47.932;7.810;2022-10-30T11:13:26;5.77;;;2.60;;
17422;SDS011;8829;47.932;7.810;2022-10-30T11:15:56;7.70;;;2.97;;
17422;SDS011;8829;47.932;7.810;2022-10-30T11:18:31;6.73;;;2.80;;
17422;SDS011;8829;47.932;7.810;2022-10-30T11:20:59;6.80;;;2.97;;
17422;SDS011;8829;47.932;7.810;2022-10-30T11:23:30;5.73;;;2.80;;
17422;SDS011;8829;47.932;7.810;2022-10-30T11:25:58;7.63;;;3.33;;
17422;SDS011;8829;47.932;7.810;2022-10-30T11:28:30;5.17;;;2.80;;
17422;SDS011;8829;47.932;7.810;2022-10-30T11:31:17;6.87;;;2.63;;
17422;SDS011;8829;47.932;7.810;2022-10-30T11:33:47;5.23;;;2.73;;
17422;SDS011;8829;47.932;7.810;2022-10-30T11:36:16;5.80;;;2.50;;
17422;SDS011;8829;47.932;7.810;2022-10-30T11:38:44;5.53;;;2.70;;
17422;SDS011;8829;47.932;7.810;2022-10-30T11:41:11;9.23;;;2.73;;
17422;SDS011;8829;47.932;7.810;2022-10-30T11:43:39;5.77;;;2.77;;
17422;SDS011;8829;47.932;7.810;2022-10-30T11:46:07;6.13;;;2.80;;
17422;SDS011;8829;47.932;7.810;2022-10-30T11:48:37;7.83;;;3.00;;
17422;SDS011;8829;47.932;7.810;2022-10-30T11:51:06;3.77;;;2.00;;
17422;SDS011;8829;47.932;7.810;2022-10-30T11:53:33;8.27;;;2.60;;
17422;SDS011;8829;47.932;7.810;2022-10-30T11:56:09;8.00;;;2.77;;
17422;SDS011;8829;47.932;7.810;2022-10-30T11:58:41;7.80;;;2.67;;
17422;SDS011;8829;47.932;7.810;2022-10-30T12:01:12;5.23;;;2.23;;
17422;SDS011;8829;47.932;7.810;2022-10-30T12:03:44;7.67;;;2.40;;
17422;SDS011;8829;47.932;7.810;2022-10-30T12:06:17;6.13;;;1.90;;
17422;SDS011;8829;47.932;7.810;2022-10-30T12:08:57;10.93;;;3.13;;
17422;SDS011;8829;47.932;7.810;2022-10-30T12:11:27;4.63;;;2.27;;
17422;SDS011;8829;47.932;7.810;2022-10-30T12:13:56;4.97;;;2.30;;
17422;SDS011;8829;47.932;7.810;2022-10-30T12:16:23;8.70;;;2.40;;
17422;SDS011;8829;47.932;7.810;2022-10-30T12:18:51;8.33;;;2.40;;
17422;SDS011;8829;47.932;7.810;2022-10-30T12:21:23;3.83;;;1.80;;
17422;SDS011;8829;47.932;7.810;2022-10-30T12:23:53;6.07;;;2.40;;
17422;SDS011;8829;47.932;7.810;2022-10-30T12:26:21;7.00;;;2.33;;
17422;SDS011;8829;47.932;7.810;2022-10-30T12:28:50;5.60;;;2.30;;
17422;SDS011;8829;47.932;7.810;2022-10-30T12:31:24;6.80;;;2.67;;
17422;SDS011;8829;47.932;7.810;2022-10-30T12:33:58;3.47;;;2.50;;
17422;SDS011;8829;47.932;7.810;2022-10-30T12:36:39;8.73;;;2.40;;
17422;SDS011;8829;47.932;7.810;2022-10-30T12:39:11;5.67;;;2.70;;
17422;SDS011;8829;47.932;7.810;2022-10-30T12:41:44;5.17;;;2.13;;
17422;SDS011;8829;47.932;7.810;2022-10-30T12:44:22;6.33;;;2.83;;
17422;SDS011;8829;47.932;7.810;2022-10-30T12:46:54;4.60;;;2.30;;
17422;SDS011;8829;47.932;7.810;2022-10-30T12:49:26;7.57;;;2.30;;
17422;SDS011;8829;47.932;7.810;2022-10-30T12:52:04;4.57;;;2.30;;
17422;SDS011;8829;47.932;7.810;2022-10-30T12:54:37;4.80;;;2.10;;
17422;SDS011;8829;47.932;7.810;2022-10-30T12:57:10;6.70;;;1.97;;
17422;SDS011;8829;47.932;7.810;2022-10-30T12:59:41;8.83;;;1.70;;
17422;SDS011;8829;47.932;7.810;2022-10-30T13:02:18;3.20;;;1.60;;
17422;SDS011;8829;47.932;7.810;2022-10-30T13:04:53;5.67;;;1.57;;
17422;SDS011;8829;47.932;7.810;2022-10-30T13:07:27;5.10;;;1.67;;
17422;SDS011;8829;47.932;7.810;2022-10-30T13:10:01;6.17;;;1.57;;
17422;SDS011;8829;47.932;7.810;2022-10-30T13:12:38;9.30;;;1.73;;
17422;SDS011;8829;47.932;7.810;2022-10-30T13:15:12;5.63;;;1.60;;
17422;SDS011;8829;47.932;7.810;2022-10-30T13:17:46;5.83;;;1.50;;
17422;SDS011;8829;47.932;7.810;2022-10-30T13:20:13;5.20;;;1.77;;
17422;SDS011;8829;47.932;7.810;2022-10-30T13:22:43;4.70;;;1.37;;
17422;SDS011;8829;47.932;7.810;2022-10-30T13:25:15;3.63;;;1.70;;
17422;SDS011;8829;47.932;7.810;2022-10-30T13:27:48;5.37;;;1.60;;
17422;SDS011;8829;47.932;7.810;2022-10-30T13:30:18;8.40;;;1.60;;
17422;SDS011;8829;47.932;7.810;2022-10-30T13:32:50;5.77;;;1.40;;
17422;SDS011;8829;47.932;7.810;2022-10-30T13:35:29;4.17;;;1.63;;
17422;SDS011;8829;47.932;7.810;2022-10-30T13:38:04;3.37;;;1.60;;
17422;SDS011;8829;47.932;7.810;2022-10-30T13:40:43;6.17;;;1.37;;
17422;SDS011;8829;47.932;7.810;2022-10-30T13:43:17;5.27;;;1.63;;
17422;SDS011;8829;47.932;7.810;2022-10-30T13:48:57;4.40;;;1.40;;
17422;SDS011;8829;47.932;7.810;2022-10-30T13:51:34;3.97;;;1.70;;
17422;SDS011;8829;47.932;7.810;2022-10-30T13:54:16;5.83;;;1.50;;
17422;SDS011;8829;47.932;7.810;2022-10-30T13:56:45;5.63;;;1.50;;
17422;SDS011;8829;47.932;7.810;2022-10-30T13:59:18;10.13;;;1.70;;
17422;SDS011;8829;47.932;7.810;2022-10-30T14:01:54;6.03;;;1.27;;
17422;SDS011;8829;47.932;7.810;2022-10-30T14:04:29;6.57;;;1.73;;
17422;SDS011;8829;47.932;7.810;2022-10-30T14:07:05;8.03;;;2.57;;
17422;SDS011;8829;47.932;7.810;2022-10-30T14:09:47;4.83;;;1.93;;
17422;SDS011;8829;47.932;7.810;2022-10-30T14:15:14;3.50;;;1.50;;
17422;SDS011;8829;47.932;7.810;2022-10-30T14:20:45;9.83;;;5.63;;
17422;SDS011;8829;47.932;7.810;2022-10-30T14:23:13;8.27;;;2.10;;
17422;SDS011;8829;47.932;7.810;2022-10-30T14:25:50;5.97;;;2.07;;
17422;SDS011;8829;47.932;7.810;2022-10-30T14:28:44;6.47;;;1.90;;
17422;SDS011;8829;47.932;7.810;2022-10-30T14:31:12;8.13;;;1.70;;
17422;SDS011;8829;47.932;7.810;2022-10-30T14:33:45;3.43;;;1.67;;
17422;SDS011;8829;47.932;7.810;2022-10-30T14:36:15;3.00;;;1.40;;
17422;SDS011;8829;47.932;7.810;2022-10-30T14:38:53;11.17;;;1.90;;
17422;SDS011;8829;47.932;7.810;2022-10-30T14:44:20;8.17;;;2.23;;
17422;SDS011;8829;47.932;7.810;2022-10-30T14:47:11;6.70;;;2.07;;
17422;SDS011;8829;47.932;7.810;2022-10-30T14:49:59;5.73;;;1.77;;
17422;SDS011;8829;47.932;7.810;2022-10-30T14:52:32;7.50;;;3.50;;
17422;SDS011;8829;47.932;7.810;2022-10-30T14:55:24;7.37;;;2.40;;
17422;SDS011;8829;47.932;7.810;2022-10-30T15:03:46;10.17;;;2.13;;
17422;SDS011;8829;47.932;7.810;2022-10-30T15:06:20;4.47;;;1.90;;
17422;SDS011;8829;47.932;7.810;2022-10-30T15:09:02;7.50;;;1.70;;
17422;SDS011;8829;47.932;7.810;2022-10-30T15:14:29;7.43;;;1.63;;
17422;SDS011;8829;47.932;7.810;2022-10-30T15:16:59;7.73;;;1.60;;
17422;SDS011;8829;47.932;7.810;2022-10-30T15:19:26;2.63;;;1.40;;
17422;SDS011;8829;47.932;7.810;2022-10-30T15:21:54;6.80;;;1.90;;
17422;SDS011;8829;47.932;7.810;2022-10-30T15:24:22;6.40;;;2.33;;
17422;SDS011;8829;47.932;7.810;2022-10-30T15:26:52;8.60;;;2.97;;
17422;SDS011;8829;47.932;7.810;2022-10-30T15:29:23;8.57;;;2.77;;
17422;SDS011;8829;47.932;7.810;2022-10-30T15:31:57;6.43;;;2.03;;
17422;SDS011;8829;47.932;7.810;2022-10-30T15:34:26;12.40;;;4.23;;
17422;SDS011;8829;47.932;7.810;2022-10-30T15:36:53;11.77;;;2.10;;
17422;SDS011;8829;47.932;7.810;2022-10-30T15:39:20;9.90;;;2.23;;